Terminal Aerodrome Forecast
Issued by NWS Denver/Boulder, CO

Home | Current Version | Previous Version | Text Only | Print | Product List | Glossary On
Versions: 1 2 3 4 5 6 7 8 9 10 11 12 13 14 15 16 17 18 19 20 21 22 23 24 25 26 27 28 29 30 31 32 33 34 35 36 37 38 39
000
FTUS45 KBOU 300541
TAFDEN
TAF
KDEN 300541Z 3006/3112 21010KT P6SM FEW150 SCT220
     FM301700 VRB05KT P6SM FEW090 SCT140
     FM302000 05006KT P6SM SCT080 BKN110 PROB30 3020/3024 VRB20G35KT
      -TSRA BKN080CB
     FM310400 02013KT P6SM VCSH SCT080 BKN120
     FM311000 33008KT P6SM FEW080 BKN130=

USA.gov is the U.S. government's official web portal to all federal, state and local government web resources and services.